Time;durP1;ratioP1;P1;durP2;ratioP2;P2;SDS_P1;SDS_P2;PMS_P1;PMS_P2;Temp;Humidity;BMP_temperature;BMP_pressure;BME280_temperature;BME280_humidity;BME280_pressure;Samples;Min_cycle;Max_cycle;Signal;HPM_P1;HPM_P2
2022/01/23 00:00:33;;;;;;;56.72;23.52;;;;;;;4.75;97.78;103562.00;5054504;28;20375;-74
2022/01/23 00:03:01;;;;;;;51.70;22.13;;;;;;;4.77;97.59;103567.19;5056367;28;20359;-74
2022/01/23 00:05:33;;;;;;;58.05;21.83;;;;;;;4.76;97.68;103579.16;5070607;28;20540;-74
2022/01/23 00:07:58;;;;;;;53.92;21.42;;;;;;;4.76;97.76;103568.88;5070178;28;20039;-74
2022/01/23 00:10:24;;;;;;;49.83;20.95;;;;;;;4.75;97.78;103563.69;5067855;28;20418;-74
2022/01/23 00:12:54;;;;;;;60.00;22.25;;;;;;;4.75;98.09;103563.69;5064060;28;20051;-74
2022/01/23 00:18:04;;;;;;;58.83;21.40;;;;;;;4.72;97.75;103564.41;5071261;28;20111;-73
2022/01/23 00:20:29;;;;;;;52.05;20.45;;;;;;;4.72;97.93;103561.84;5067562;28;20370;-73
2022/01/23 00:22:59;;;;;;;52.95;20.65;;;;;;;4.71;97.89;103562.66;5070139;28;20032;-73
2022/01/23 00:30:55;;;;;;;48.60;20.43;;;;;;;4.70;97.57;103550.66;5068400;28;20158;-75
2022/01/23 00:33:22;;;;;;;54.00;20.45;;;;;;;4.68;97.59;103557.38;5062483;28;20287;-74
2022/01/23 00:35:47;;;;;;;51.88;21.33;;;;;;;4.67;97.71;103545.34;5063360;28;20032;-74
2022/01/23 00:38:14;;;;;;;52.90;20.45;;;;;;;4.67;97.21;103544.47;5069647;28;20325;-73
2022/01/23 00:40:42;;;;;;;52.28;20.15;;;;;;;4.64;97.46;103540.06;5070212;28;20024;-73
2022/01/23 00:43:16;;;;;;;50.88;20.35;;;;;;;4.63;97.72;103546.03;5070120;28;20048;-73
2022/01/23 00:45:47;;;;;;;48.45;19.50;;;;;;;4.65;98.08;103552.09;5067964;28;20020;-73
2022/01/23 00:48:13;;;;;;;47.67;19.05;;;;;;;4.66;97.99;103552.97;5070260;28;20028;-73
2022/01/23 00:50:43;;;;;;;49.40;19.77;;;;;;;4.65;97.93;103551.22;5051689;28;20475;-73
2022/01/23 00:53:11;;;;;;;53.50;19.17;;;;;;;4.66;98.03;103550.41;5070346;28;20021;-73
2022/01/23 00:55:38;;;;;;;48.80;19.10;;;;;;;4.65;98.49;103546.09;5064392;28;20057;-74
2022/01/23 00:58:03;;;;;;;47.42;19.13;;;;;;;4.66;98.50;103545.28;5050305;28;20603;-74
2022/01/23 01:00:29;;;;;;;50.42;18.63;;;;;;;4.66;98.37;103541.03;5034285;28;20179;-74
2022/01/23 01:02:55;;;;;;;47.80;19.73;;;;;;;4.69;98.58;103548.00;5054446;28;20363;-74
2022/01/23 01:05:21;;;;;;;49.00;19.20;;;;;;;4.69;98.62;103541.16;5063956;28;20090;-74
2022/01/23 01:07:47;;;;;;;46.17;18.80;;;;;;;4.71;98.74;103551.50;5058298;28;20024;-74
2022/01/23 01:10:20;;;;;;;48.90;18.63;;;;;;;4.73;98.87;103545.63;5068023;28;20150;-74
2022/01/23 01:12:48;;;;;;;50.00;19.58;;;;;;;4.73;98.15;103537.03;5062034;28;20059;-74
2022/01/23 01:31:21;;;;;;;53.97;19.40;;;;;;;4.71;98.86;103549.81;5066410;28;20113;-74
2022/01/23 01:36:49;;;;;;;49.50;18.73;;;;;;;4.71;99.25;103556.63;5022597;28;20480;-74
2022/01/23 01:39:25;;;;;;;52.08;18.60;;;;;;;4.68;98.57;103552.25;5032861;28;20116;-74
2022/01/23 01:41:52;;;;;;;48.35;19.10;;;;;;;4.70;99.08;103550.66;5065428;28;20029;-74
2022/01/23 01:44:17;;;;;;;48.08;19.27;;;;;;;4.72;99.29;103561.84;5068374;28;20580;-74
2022/01/23 01:46:44;;;;;;;46.25;19.13;;;;;;;4.75;99.45;103559.41;5053351;28;20610;-74
2022/01/23 01:49:10;;;;;;;46.85;19.00;;;;;;;4.76;99.31;103563.75;5060832;28;20032;-74
2022/01/23 01:51:36;;;;;;;48.80;18.67;;;;;;;4.78;99.42;103562.09;5053672;28;20467;-74
2022/01/23 01:54:14;;;;;;;47.00;18.50;;;;;;;4.78;99.25;103573.22;5061611;28;20028;-73
2022/01/23 01:57:04;;;;;;;49.88;19.85;;;;;;;4.73;98.69;103567.88;5069009;28;20028;-74
2022/01/23 02:10:07;;;;;;;43.45;18.27;;;;;;;4.69;99.90;103548.88;5049586;28;20553;-74
2022/01/23 02:13:01;;;;;;;47.45;18.50;;;;;;;4.71;100.00;103554.06;5039596;28;20017;-74
2022/01/23 02:50:57;;;;;;;43.30;17.13;;;;;;;4.70;99.19;103524.06;5068628;28;20043;-74
2022/01/23 02:53:40;;;;;;;48.65;18.23;;;;;;;4.66;99.32;103525.59;5048937;28;20064;-74
2022/01/23 02:56:18;;;;;;;47.67;17.90;;;;;;;4.70;99.49;103518.94;5051822;28;20032;-74
2022/01/23 02:58:56;;;;;;;46.35;17.88;;;;;;;4.70;99.81;103522.38;5068330;28;20042;-74
2022/01/23 03:01:24;;;;;;;43.70;16.75;;;;;;;4.70;99.81;103521.50;5051764;28;20096;-74
2022/01/23 03:03:57;;;;;;;49.10;18.88;;;;;;;4.71;99.54;103518.09;5047303;28;20091;-74
2022/01/23 03:25:42;;;;;;;46.38;17.75;;;;;;;4.63;99.40;103533.19;5059010;28;20035;-74
2022/01/23 03:30:51;;;;;;;46.50;17.23;;;;;;;4.60;98.92;103533.06;5059176;28;20036;-74
2022/01/23 03:33:17;;;;;;;48.17;17.50;;;;;;;4.60;98.74;103527.91;5041898;28;20209;-74
2022/01/23 03:35:43;;;;;;;45.03;17.88;;;;;;;4.60;98.83;103527.91;5065239;28;20033;-74
2022/01/23 03:38:08;;;;;;;45.08;18.20;;;;;;;4.59;98.70;103531.28;5062145;28;20048;-73
2022/01/23 03:40:34;;;;;;;46.13;18.40;;;;;;;4.59;98.77;103531.28;5069720;28;20071;-74
2022/01/23 03:43:09;;;;;;;44.50;18.05;;;;;;;4.59;98.89;103532.97;5062273;28;20074;-74
2022/01/23 03:45:56;;;;;;;44.10;17.27;;;;;;;4.58;98.82;103532.09;5053193;28;20120;-73
2022/01/23 03:50:52;;;;;;;46.97;17.88;;;;;;;4.61;99.28;103534.81;5063201;28;20040;-80
2022/01/23 03:53:18;;;;;;;43.60;16.73;;;;;;;4.61;99.08;103550.22;5045427;28;20032;-80
2022/01/23 03:55:44;;;;;;;42.33;16.85;;;;;;;4.62;99.45;103548.53;5064157;28;20020;-80
2022/01/23 03:58:09;;;;;;;50.78;18.63;;;;;;;4.61;99.54;103539.94;5064285;28;20033;-80
2022/01/23 04:00:35;;;;;;;46.63;17.23;;;;;;;4.62;99.42;103535.69;5051500;28;20040;-80
2022/01/23 04:03:00;;;;;;;44.13;17.02;;;;;;;4.60;99.02;103540.75;5063427;28;20039;-80
2022/01/23 04:05:25;;;;;;;44.40;17.67;;;;;;;4.60;99.00;103548.47;5062598;28;20028;-80
2022/01/23 04:07:51;;;;;;;46.75;17.80;;;;;;;4.58;99.19;103547.50;5063630;28;20078;-80
2022/01/23 04:10:19;;;;;;;46.03;17.38;;;;;;;4.58;98.89;103550.06;5063972;28;20028;-80
2022/01/23 04:12:58;;;;;;;45.33;17.88;;;;;;;4.58;99.25;103549.19;5063194;28;20032;-80
2022/01/23 04:20:51;;;;;;;44.63;17.38;;;;;;;4.60;99.47;103552.72;5062210;28;20132;-74
2022/01/23 04:31:54;;;;;;;44.07;17.00;;;;;;;4.63;99.04;103545.16;5065851;28;20592;-74
2022/01/23 04:34:37;;;;;;;45.13;17.75;;;;;;;4.61;99.04;103544.22;5051982;28;20378;-74
2022/01/23 04:45:23;;;;;;;48.80;18.13;;;;;;;4.63;98.68;103556.31;5044762;28;20051;-74
2022/01/23 05:01:12;;;;;;;42.87;15.70;;;;;;;4.59;98.96;103550.97;5050487;28;20654;-74
2022/01/23 05:06:21;;;;;;;39.15;15.70;;;;;;;4.60;99.12;103556.16;5047940;28;20036;-73
2022/01/23 05:08:46;;;;;;;42.85;16.48;;;;;;;4.61;98.88;103547.66;5043056;28;20107;-74
2022/01/23 05:11:12;;;;;;;40.03;15.95;;;;;;;4.66;99.58;103547.84;5042781;28;20151;-74
2022/01/23 05:13:38;;;;;;;39.70;15.57;;;;;;;4.66;99.60;103556.44;5024578;28;20017;-73
2022/01/23 05:16:04;;;;;;;39.47;15.90;;;;;;;4.66;99.27;103558.13;5042483;28;20032;-74
2022/01/23 05:18:32;;;;;;;38.15;14.98;;;;;;;4.65;99.37;103549.53;5041893;28;20029;-74
2022/01/23 05:21:10;;;;;;;40.97;16.50;;;;;;;4.67;99.28;103549.59;5042054;28;20075;-73
2022/01/23 05:23:35;;;;;;;40.60;16.40;;;;;;;4.70;99.69;103550.66;5041830;28;20029;-73
2022/01/23 05:26:00;;;;;;;42.58;16.38;;;;;;;4.68;99.38;103547.13;5025086;28;20040;-74
2022/01/23 05:28:26;;;;;;;38.10;15.45;;;;;;;4.69;99.48;103561.72;5041794;28;20030;-74
2022/01/23 05:30:51;;;;;;;41.17;16.15;;;;;;;4.64;99.68;103554.63;5024092;28;20118;-73
2022/01/23 05:33:16;;;;;;;43.80;16.65;;;;;;;4.61;99.13;103557.94;5023780;28;20091;-74
2022/01/23 05:35:42;;;;;;;38.83;15.63;;;;;;;4.60;99.63;103558.75;5041838;28;20471;-74
2022/01/23 05:38:07;;;;;;;44.25;16.10;;;;;;;4.61;100.00;103557.06;5041772;28;20075;-74
2022/01/23 05:40:33;;;;;;;41.22;16.35;;;;;;;4.61;100.00;103563.06;5042569;28;20029;-74
2022/01/23 05:42:58;;;;;;;40.15;16.00;;;;;;;4.61;99.83;103560.50;5041304;28;20111;-74
2022/01/23 05:45:23;;;;;;;46.78;16.25;;;;;;;4.65;100.00;103558.94;5041420;28;20503;-74
2022/01/23 05:47:49;;;;;;;40.58;16.20;;;;;;;4.67;100.00;103558.19;5040418;28;20212;-74
2022/01/23 05:50:14;;;;;;;38.88;15.80;;;;;;;4.70;100.00;103554.91;5039988;28;20029;-74
2022/01/23 05:52:39;;;;;;;43.20;16.80;;;;;;;4.71;100.00;103562.66;5041035;28;20040;-74
2022/01/23 05:55:06;;;;;;;37.88;16.10;;;;;;;4.68;99.91;103557.38;5040881;28;20157;-74
2022/01/23 05:57:31;;;;;;;38.20;15.32;;;;;;;4.72;100.00;103559.28;5040560;28;20028;-74
2022/01/23 05:59:56;;;;;;;39.47;15.38;;;;;;;4.72;100.00;103554.13;5031203;28;20025;-74
2022/01/23 06:02:21;;;;;;;41.63;15.35;;;;;;;4.71;100.00;103554.94;5040411;28;20039;-73
2022/01/23 06:04:47;;;;;;;40.53;15.52;;;;;;;4.66;99.69;103540.13;5043641;28;20447;-74
2022/01/23 06:07:12;;;;;;;43.15;16.70;;;;;;;4.69;100.00;103554.00;5045844;28;20486;-74
2022/01/23 06:09:39;;;;;;;38.30;15.35;;;;;;;4.68;99.94;103547.13;5048088;28;20136;-74
2022/01/23 06:12:05;;;;;;;39.83;16.58;;;;;;;4.67;99.59;103559.88;5047533;28;20025;-74
2022/01/23 06:14:31;;;;;;;41.60;16.58;;;;;;;4.66;99.24;103555.56;5048249;28;20028;-74
2022/01/23 06:16:56;;;;;;;38.00;16.30;;;;;;;4.65;99.48;103548.66;5046211;28;20024;-74
2022/01/23 06:19:21;;;;;;;43.78;16.63;;;;;;;4.66;99.20;103563.25;5041105;28;20102;-74
2022/01/23 06:21:47;;;;;;;44.40;16.98;;;;;;;4.67;99.17;103563.34;5030970;28;20203;-74
2022/01/23 06:24:26;;;;;;;43.03;17.35;;;;;;;4.66;98.71;103565.81;5040315;28;20510;-73
2022/01/23 06:26:54;;;;;;;43.92;16.40;;;;;;;4.66;98.87;103563.25;5042174;28;20020;-73
2022/01/23 06:29:21;;;;;;;40.70;16.58;;;;;;;4.69;99.00;103571.13;5039741;28;20021;-73
2022/01/23 06:31:48;;;;;;;43.72;16.92;;;;;;;4.70;98.83;103570.31;5043625;28;20036;-74
2022/01/23 06:34:16;;;;;;;43.80;17.08;;;;;;;4.70;98.90;103566.06;5044060;28;20052;-74
2022/01/23 06:36:42;;;;;;;42.22;16.20;;;;;;;4.72;99.12;103566.97;5040990;28;20043;-73
2022/01/23 06:39:10;;;;;;;41.30;17.15;;;;;;;4.73;99.27;103568.75;5040842;28;20415;-74
2022/01/23 06:41:36;;;;;;;43.10;16.35;;;;;;;4.75;99.11;103566.25;5038791;28;20032;-74
2022/01/23 06:44:02;;;;;;;41.35;16.90;;;;;;;4.77;98.61;103567.19;5046623;28;20041;-74
2022/01/23 06:46:28;;;;;;;46.75;16.80;;;;;;;4.76;98.80;103571.47;5058813;28;20106;-73
2022/01/23 06:48:53;;;;;;;45.72;17.30;;;;;;;4.74;98.70;103570.50;5058170;28;20459;-74
2022/01/23 06:51:19;;;;;;;44.47;16.75;;;;;;;4.75;98.34;103576.53;5061712;28;20108;-74
2022/01/23 06:53:45;;;;;;;41.20;16.33;;;;;;;4.73;98.41;103581.59;5058924;28;20386;-74
2022/01/23 06:56:10;;;;;;;42.13;16.58;;;;;;;4.73;98.64;103584.16;5058048;28;20032;-74
2022/01/23 06:58:36;;;;;;;45.88;16.63;;;;;;;4.75;99.20;103579.09;5058911;28;20020;-74
2022/01/23 07:01:01;;;;;;;39.38;15.57;;;;;;;4.77;99.55;103587.75;5056927;28;20020;-74
2022/01/23 07:03:27;;;;;;;43.22;17.02;;;;;;;4.78;99.43;103582.66;5061316;28;20039;-74
2022/01/23 07:05:53;;;;;;;41.10;16.27;;;;;;;4.78;99.58;103594.63;5058425;28;20347;-73
2022/01/23 07:08:18;;;;;;;40.80;16.30;;;;;;;4.75;99.26;103597.06;5057328;28;20623;-73
2022/01/23 07:10:43;;;;;;;41.40;16.23;;;;;;;4.78;99.32;103596.34;5057526;28;20314;-74
2022/01/23 07:13:09;;;;;;;41.05;17.00;;;;;;;4.74;99.10;103605.59;5061964;28;20040;-73
2022/01/23 07:15:34;;;;;;;42.10;16.67;;;;;;;4.76;99.36;103601.41;5063455;28;20029;-74
2022/01/23 07:17:59;;;;;;;40.47;16.13;;;;;;;4.77;99.66;103605.75;5052546;28;20486;-74
2022/01/23 07:20:24;;;;;;;42.35;16.42;;;;;;;4.72;99.35;103600.38;5066477;28;20032;-74
2022/01/23 07:22:50;;;;;;;37.55;15.82;;;;;;;4.78;99.96;103613.50;5070547;28;20090;-74
2022/01/23 07:25:15;;;;;;;43.63;16.17;;;;;;;4.78;99.59;103604.91;5062405;28;20399;-74
2022/01/23 07:27:49;;;;;;;43.75;16.98;;;;;;;4.78;99.09;103619.47;5069235;28;20028;-74
2022/01/23 07:32:59;;;;;;;44.40;16.65;;;;;;;4.78;99.90;103622.88;5067131;28;20043;-73
2022/01/23 07:35:24;;;;;;;45.67;16.75;;;;;;;4.85;99.96;103629.19;5061799;28;20446;-74
2022/01/23 07:37:50;;;;;;;42.95;16.20;;;;;;;4.86;99.85;103628.38;5070810;28;20064;-73
2022/01/23 07:40:15;;;;;;;43.28;16.42;;;;;;;4.89;99.83;103628.53;5064033;28;20035;-74
2022/01/23 07:42:41;;;;;;;43.17;16.65;;;;;;;4.89;99.78;103638.81;5062705;28;20029;-74
2022/01/23 07:45:07;;;;;;;43.22;16.50;;;;;;;4.89;99.91;103636.22;5068222;28;20072;-74
2022/01/23 07:47:33;;;;;;;42.08;16.52;;;;;;;4.92;100.00;103639.81;5070441;28;20028;-74
2022/01/23 07:49:58;;;;;;;45.70;18.10;;;;;;;4.92;99.78;103639.81;5048383;28;20411;-74
2022/01/23 07:52:23;;;;;;;46.13;16.92;;;;;;;4.95;99.78;103633.94;5067775;28;20514;-74
2022/01/23 07:54:49;;;;;;;43.50;16.98;;;;;;;4.97;100.00;103630.63;5069780;28;20020;-74
2022/01/23 07:57:14;;;;;;;44.30;16.80;;;;;;;4.99;99.93;103634.13;5056122;28;20108;-74
2022/01/23 07:59:39;;;;;;;42.58;17.38;;;;;;;5.02;100.00;103647.13;5053829;28;20027;-74
2022/01/23 08:02:05;;;;;;;42.28;17.02;;;;;;;5.03;99.83;103638.59;5058212;28;20029;-74
2022/01/23 08:04:30;;;;;;;42.13;16.52;;;;;;;5.05;99.66;103643.81;5064521;28;20644;-75
2022/01/23 08:09:40;;;;;;;43.47;16.63;;;;;;;5.11;100.00;103646.66;5062611;28;20032;-74
2022/01/23 08:12:06;;;;;;;47.83;17.77;;;;;;;5.13;100.00;103645.00;5068001;28;20089;-74
2022/01/23 08:14:31;;;;;;;46.53;18.48;;;;;;;5.16;99.78;103645.16;5061212;28;20024;-75
2022/01/23 08:16:56;;;;;;;43.75;17.15;;;;;;;5.16;99.31;103640.91;5064635;28;20545;-75
2022/01/23 08:19:21;;;;;;;45.58;17.55;;;;;;;5.20;99.77;103651.28;5050728;28;20036;-75
2022/01/23 08:21:47;;;;;;;44.37;17.53;;;;;;;5.15;98.77;103648.53;5069288;28;20373;-75
2022/01/23 08:24:12;;;;;;;39.50;16.38;;;;;;;5.17;99.58;103641.78;5068749;28;20378;-75
2022/01/23 08:26:37;;;;;;;45.90;17.65;;;;;;;5.10;98.85;103650.03;5068106;28;20063;-75
2022/01/23 08:29:05;;;;;;;43.22;18.08;;;;;;;5.06;98.60;103661.84;5058512;28;20021;-75
2022/01/23 08:31:30;;;;;;;42.00;17.48;;;;;;;5.05;99.14;103659.25;5069484;28;20055;-74
2022/01/23 08:33:55;;;;;;;45.00;16.52;;;;;;;5.08;99.54;103659.38;5067925;28;20059;-74
2022/01/23 08:36:20;;;;;;;45.77;17.33;;;;;;;5.11;99.50;103659.50;5067928;28;20028;-74
2022/01/23 08:38:46;;;;;;;43.05;17.38;;;;;;;5.09;99.18;103666.28;5040969;28;20290;-74
2022/01/23 08:43:37;;;;;;;41.95;16.08;;;;;;;5.16;99.54;103663.16;5066900;28;20080;-75
2022/01/23 08:46:02;;;;;;;44.88;16.75;;;;;;;5.17;99.76;103659.78;5069420;28;20024;-74
2022/01/23 08:48:28;;;;;;;41.67;16.48;;;;;;;5.15;99.03;103662.28;5047932;28;20207;-74
2022/01/23 08:50:53;;;;;;;43.83;16.83;;;;;;;5.27;99.98;103668.75;5068563;28;20498;-75
2022/01/23 08:53:18;;;;;;;42.22;17.50;;;;;;;5.30;99.66;103668.91;5068586;28;20056;-75
2022/01/23 08:55:44;;;;;;;46.45;18.23;;;;;;;5.33;99.36;103667.31;5037484;28;20403;-75
2022/01/23 08:58:09;;;;;;;47.58;18.92;;;;;;;5.36;99.44;103667.47;5058512;28;20017;-75
2022/01/23 09:00:35;;;;;;;51.00;19.70;;;;;;;5.39;99.37;103672.72;5067038;28;20111;-75
2022/01/23 09:03:01;;;;;;;50.60;19.55;;;;;;;5.43;99.13;103673.75;5061911;28;20119;-75
2022/01/23 09:05:27;;;;;;;49.28;19.70;;;;;;;5.45;99.08;103677.28;5060667;28;20083;-75
2022/01/23 09:07:52;;;;;;;48.15;19.02;;;;;;;5.50;99.02;103675.78;5058950;28;20426;-75
2022/01/23 09:10:25;;;;;;;48.45;19.77;;;;;;;5.55;99.26;103671.69;5063848;28;20383;-75
2022/01/23 09:13:07;;;;;;;48.75;19.55;;;;;;;5.60;98.77;103680.47;5065519;28;20510;-75
2022/01/23 09:15:32;;;;;;;51.03;19.60;;;;;;;5.64;98.56;103676.34;5059164;28;20098;-75
2022/01/23 09:17:57;;;;;;;45.47;19.27;;;;;;;5.67;98.43;103663.59;5068975;28;20422;-75
2022/01/23 09:20:23;;;;;;;56.47;20.35;;;;;;;5.63;97.57;103660.03;5069306;28;20453;-75
2022/01/23 09:22:48;;;;;;;49.95;18.85;;;;;;;5.76;98.18;103666.56;5050411;28;20033;-76
2022/01/23 09:25:13;;;;;;;49.60;20.07;;;;;;;5.75;97.16;103670.84;5065428;28;20032;-75
2022/01/23 09:27:40;;;;;;;51.35;20.40;;;;;;;5.79;96.99;103674.44;5051896;28;20287;-75
2022/01/23 09:30:16;;;;;;;54.08;20.58;;;;;;;5.79;96.77;103674.44;5069885;28;20028;-75
2022/01/23 09:32:43;;;;;;;54.38;20.55;;;;;;;5.87;97.59;103673.03;5050535;28;20025;-75
2022/01/23 09:35:09;;;;;;;53.47;20.75;;;;;;;5.92;97.46;103676.72;5056779;28;20040;-75
2022/01/23 09:37:35;;;;;;;56.15;21.27;;;;;;;5.97;97.12;103675.22;5048308;28;20017;-75
2022/01/23 09:40:00;;;;;;;55.85;20.60;;;;;;;6.04;97.07;103676.34;5061340;28;20044;-75
2022/01/23 09:43:01;;;;;;;51.53;19.75;;;;;;;6.11;97.08;103675.75;5070162;28;20024;-75
2022/01/23 09:45:27;;;;;;;53.13;21.92;;;;;;;6.12;96.54;103680.09;5050263;28;20044;-75
2022/01/23 09:47:55;;;;;;;54.20;21.40;;;;;;;6.15;96.15;103690.50;5058938;28;20112;-75
2022/01/23 09:50:21;;;;;;;60.88;22.95;;;;;;;6.19;95.53;103690.72;5043711;28;20036;-75
2022/01/23 09:52:46;;;;;;;61.97;24.30;;;;;;;6.20;94.86;103691.59;5031609;28;20067;-75
2022/01/23 09:55:12;;;;;;;62.63;24.25;;;;;;;6.23;95.67;103690.00;5042191;28;20135;-75
2022/01/23 09:57:47;;;;;;;59.05;23.00;;;;;;;6.28;95.66;103696.22;5062756;28;20032;-75
2022/01/23 10:00:19;;;;;;;55.88;22.20;;;;;;;6.32;96.05;103692.97;5061944;28;20031;-75
2022/01/23 10:02:46;;;;;;;56.80;22.92;;;;;;;6.37;95.87;103697.41;5067820;28;20024;-75
2022/01/23 10:05:12;;;;;;;54.70;21.88;;;;;;;6.44;96.05;103689.97;5059054;28;20099;-75
2022/01/23 10:07:39;;;;;;;57.65;22.15;;;;;;;6.45;94.40;103694.31;5067519;28;20029;-75
2022/01/23 10:10:20;;;;;;;57.10;23.08;;;;;;;6.48;95.33;103694.44;5062718;28;20028;-76
2022/01/23 10:12:50;;;;;;;54.33;22.23;;;;;;;6.51;95.41;103691.97;5068916;28;20031;-75
2022/01/23 10:15:17;;;;;;;54.42;22.25;;;;;;;6.56;94.59;103693.00;5050239;28;20024;-75
2022/01/23 10:17:42;;;;;;;59.17;22.38;;;;;;;6.58;93.68;103690.50;5048142;28;20060;-75
2022/01/23 10:20:11;;;;;;;59.22;22.65;;;;;;;6.66;94.80;103691.69;5060329;28;20110;-75
2022/01/23 10:22:37;;;;;;;55.53;21.65;;;;;;;6.70;94.44;103688.38;5061921;28;20028;-75
2022/01/23 10:25:12;;;;;;;56.33;22.60;;;;;;;6.77;94.33;103689.50;5061765;28;20031;-75
2022/01/23 10:28:02;;;;;;;52.38;21.90;;;;;;;6.84;93.92;103689.78;5040195;28;20426;-75
2022/01/23 10:30:31;;;;;;;60.10;22.50;;;;;;;6.89;93.58;103685.66;5058381;28;20086;-86
2022/01/23 10:32:59;;;;;;;60.05;23.20;;;;;;;6.91;93.25;103685.75;5063908;28;20351;-86
2022/01/23 10:35:25;;;;;;;55.67;21.90;;;;;;;6.93;92.49;103677.25;5050562;28;20044;-85
2022/01/23 10:37:52;;;;;;;57.13;22.05;;;;;;;6.96;92.29;103679.91;5038447;28;20506;-85
2022/01/23 10:40:27;;;;;;;57.33;22.38;;;;;;;6.99;92.07;103686.91;5040853;28;20040;-86
2022/01/23 10:48:12;;;;;;;52.47;21.30;;;;;;;7.04;91.35;103687.94;5068500;28;20052;-86
2022/01/23 10:50:37;;;;;;;51.28;20.45;;;;;;;7.10;92.85;103685.56;5046234;28;20033;-86
2022/01/23 10:53:03;;;;;;;53.53;20.75;;;;;;;7.12;92.07;103684.81;5072393;28;20039;-86
2022/01/23 10:55:32;;;;;;;50.90;20.60;;;;;;;7.17;91.52;103674.66;5072431;28;20024;-85
2022/01/23 10:58:01;;;;;;;52.22;20.42;;;;;;;7.23;91.02;103679.19;5072791;28;20016;-86
2022/01/23 11:00:31;;;;;;;54.08;20.90;;;;;;;7.28;92.07;103681.09;5072594;28;20085;-75
2022/01/23 11:03:02;;;;;;;54.83;21.77;;;;;;;7.32;91.51;103671.75;5072304;28;20016;-75
2022/01/23 11:05:33;;;;;;;59.35;22.48;;;;;;;7.40;91.25;103676.38;5066111;28;20039;-75
2022/01/23 11:07:59;;;;;;;53.63;21.02;;;;;;;7.46;91.09;103678.28;5056250;28;20492;-75
2022/01/23 11:10:25;;;;;;;57.97;22.83;;;;;;;7.52;91.76;103676.78;5063107;28;20094;-75
2022/01/23 11:18:19;;;;;;;52.60;20.42;;;;;;;7.62;90.20;103671.94;5067415;28;20094;-75
2022/01/23 11:20:50;;;;;;;55.55;21.63;;;;;;;7.59;89.60;103662.38;5069890;28;20028;-75
2022/01/23 11:23:27;;;;;;;60.75;22.98;;;;;;;7.61;90.44;103673.63;5052724;28;20402;-75
2022/01/23 11:25:52;;;;;;;53.42;21.88;;;;;;;7.61;90.45;103665.91;5071114;28;20031;-75
2022/01/23 11:28:18;;;;;;;56.87;22.50;;;;;;;7.63;90.54;103672.00;5069261;28;20020;-75
2022/01/23 11:30:47;;;;;;;56.15;21.15;;;;;;;7.67;90.16;103660.94;5063841;28;20032;-75
2022/01/23 11:33:17;;;;;;;56.40;21.90;;;;;;;7.69;89.91;103663.56;5044387;28;20475;-75
2022/01/23 11:35:43;;;;;;;52.95;21.33;;;;;;;7.72;90.12;103661.97;5052360;28;20039;-75
2022/01/23 11:38:15;;;;;;;55.25;23.20;;;;;;;7.69;88.73;103650.66;5058335;28;20513;-75
2022/01/23 11:54:02;;;;;;;54.80;21.60;;;;;;;7.67;87.80;103647.16;5072123;28;20055;-75
2022/01/23 11:56:29;;;;;;;58.00;22.25;;;;;;;7.69;90.26;103643.81;5062313;28;20135;-75
2022/01/23 11:59:12;;;;;;;52.92;21.40;;;;;;;7.68;88.95;103647.22;5052177;28;20135;-84
2022/01/23 12:01:39;;;;;;;52.17;21.67;;;;;;;7.60;88.41;103634.88;5033691;28;20031;-85
2022/01/23 12:04:08;;;;;;;55.55;21.88;;;;;;;7.61;90.28;103645.25;5060270;28;20512;-86
2022/01/23 12:06:39;;;;;;;58.22;22.25;;;;;;;7.61;89.71;103645.25;5066542;28;20106;-85
2022/01/23 12:09:17;;;;;;;55.15;21.73;;;;;;;7.67;90.35;103639.41;5066589;28;20024;-86
2022/01/23 12:12:01;;;;;;;54.17;21.02;;;;;;;7.71;90.40;103639.53;5057132;28;20016;-86
2022/01/23 12:17:12;;;;;;;52.58;20.23;;;;;;;7.72;89.33;103636.13;5068806;28;20271;-87
2022/01/23 12:19:58;;;;;;;46.63;18.92;;;;;;;7.73;88.71;103640.47;5066581;28;20037;-86
2022/01/23 12:22:35;;;;;;;51.50;19.10;;;;;;;7.72;88.55;103635.25;5058595;28;20479;-86
2022/01/23 12:25:16;;;;;;;47.85;20.23;;;;;;;7.74;89.53;103625.88;5069444;28;20039;-86
2022/01/23 12:27:42;;;;;;;48.70;18.88;;;;;;;7.76;89.17;103622.53;5051025;28;20039;-85
2022/01/23 12:30:18;;;;;;;52.40;19.95;;;;;;;7.83;89.99;103619.31;5068545;28;20391;-75
2022/01/23 12:32:44;;;;;;;50.05;19.55;;;;;;;7.87;89.23;103621.16;5039681;28;20039;-75
2022/01/23 12:35:12;;;;;;;49.28;19.75;;;;;;;7.94;89.35;103617.06;5067109;28;20096;-75
2022/01/23 12:37:56;;;;;;;46.33;18.73;;;;;;;7.94;88.06;103617.94;5069117;28;20104;-75
2022/01/23 12:40:36;;;;;;;47.60;18.77;;;;;;;7.79;87.60;103617.44;5066877;28;20411;-75
2022/01/23 12:43:03;;;;;;;48.00;18.77;;;;;;;7.73;87.15;103617.25;5064973;28;20020;-75
2022/01/23 12:45:59;;;;;;;39.15;16.10;;;;;;;7.77;88.91;103608.78;5061086;28;20555;-75
2022/01/23 12:48:29;;;;;;;46.92;18.67;;;;;;;7.77;87.66;103608.78;5060969;28;20075;-76
2022/01/23 12:50:58;;;;;;;52.22;19.73;;;;;;;7.80;88.27;103608.88;5064245;28;20024;-76
2022/01/23 12:53:49;;;;;;;52.67;20.75;;;;;;;7.89;89.51;103609.19;5066092;28;20063;-75
2022/01/23 12:56:16;;;;;;;52.22;20.23;;;;;;;7.87;88.54;103608.25;5034843;28;20052;-75
2022/01/23 12:58:49;;;;;;;47.50;19.42;;;;;;;7.84;87.35;103600.41;5067054;28;20024;-75
2022/01/23 13:01:25;;;;;;;52.70;21.30;;;;;;;7.88;88.40;103598.78;5059993;28;20032;-75
2022/01/23 13:03:55;;;;;;;49.90;20.50;;;;;;;7.88;89.24;103594.50;5052451;28;20021;-75
2022/01/23 13:06:30;;;;;;;45.97;18.80;;;;;;;7.91;88.90;103599.75;5038209;28;20567;-75
2022/01/23 13:09:25;;;;;;;49.50;19.75;;;;;;;7.91;88.40;103592.00;5052114;28;20110;-75
2022/01/23 13:12:25;;;;;;;50.38;19.48;;;;;;;7.87;88.50;103590.16;5059207;28;20060;-75
2022/01/23 13:31:47;;;;;;;56.67;21.52;;;;;;;7.74;88.16;103593.19;5067025;28;20479;-75
2022/01/23 13:35:04;;;;;;;53.05;21.30;;;;;;;7.70;88.51;103587.88;5060849;28;20036;-76
2022/01/23 13:37:34;;;;;;;54.08;22.33;;;;;;;7.65;89.46;103581.69;5026728;28;20041;-76
2022/01/23 13:40:12;;;;;;;53.70;21.58;;;;;;;7.66;89.62;103589.47;5054146;28;20040;-75
2022/01/23 13:59:43;;;;;;;57.72;22.55;;;;;;;7.46;90.24;103581.09;5068321;28;20102;-86
2022/01/23 14:02:22;;;;;;;61.47;25.17;;;;;;;7.42;89.85;103573.19;5058874;28;20043;-86
2022/01/23 14:05:11;;;;;;;61.88;24.60;;;;;;;7.39;89.82;103576.56;5048890;28;20032;-86
2022/01/23 14:07:39;;;;;;;58.90;24.55;;;;;;;7.27;89.53;103577.84;5042784;28;20434;-86
2022/01/23 14:10:15;;;;;;;60.85;25.83;;;;;;;7.24;91.07;103573.44;5059899;28;20034;-86
2022/01/23 14:12:42;;;;;;;58.35;25.30;;;;;;;7.19;90.46;103566.38;5060029;28;20039;-87
2022/01/23 14:15:14;;;;;;;64.13;26.42;;;;;;;7.17;91.13;103562.88;5061533;28;20487;-86
2022/01/23 14:17:40;;;;;;;64.97;25.92;;;;;;;7.16;91.17;103564.59;5067480;28;20043;-86
2022/01/23 14:20:08;;;;;;;60.97;25.65;;;;;;;7.11;89.57;103564.41;5048147;28;20082;-86
2022/01/23 14:22:39;;;;;;;63.22;25.52;;;;;;;7.09;91.07;103560.94;5063892;28;20068;-86
2022/01/23 14:25:26;;;;;;;63.28;25.70;;;;;;;7.11;91.73;103567.00;5063911;28;20032;-86
2022/01/23 14:28:12;;;;;;;63.20;25.95;;;;;;;7.09;90.81;103573.84;5066147;28;20033;-85
2022/01/23 14:30:54;;;;;;;59.13;24.85;;;;;;;7.06;91.48;103565.97;5056426;28;20033;-76
2022/01/23 14:33:22;;;;;;;60.42;24.73;;;;;;;7.06;91.58;103578.00;5065505;28;20037;-76
2022/01/23 14:35:49;;;;;;;62.45;24.90;;;;;;;7.04;91.72;103577.03;5048884;28;20020;-76
2022/01/23 14:38:24;;;;;;;62.50;26.65;;;;;;;7.03;91.15;103583.03;5066580;28;20103;-76
2022/01/23 14:40:55;;;;;;;62.05;25.33;;;;;;;7.01;91.18;103584.69;5059955;28;20205;-76
2022/01/23 14:43:21;;;;;;;65.00;26.05;;;;;;;6.94;90.78;103585.31;5065937;28;20021;-76
2022/01/23 14:45:49;;;;;;;66.22;26.10;;;;;;;6.89;91.29;103584.28;5046625;28;20035;-76
2022/01/23 14:48:15;;;;;;;64.97;25.58;;;;;;;6.86;91.95;103581.56;5047085;28;20451;-76
2022/01/23 14:50:52;;;;;;;61.85;25.40;;;;;;;6.84;92.20;103576.34;5048511;28;20425;-76